createdAt,value
2016-11-11T00:00:33.213Z,1000.76
2016-11-11T00:01:33.200Z,1000.77
2016-11-11T00:02:33.183Z,1000.8
2016-11-11T00:03:33.168Z,1000.79
2016-11-11T00:04:33.150Z,1000.77
2016-11-11T00:05:33.136Z,1000.76
2016-11-11T00:06:33.118Z,1000.77
2016-11-11T00:07:33.100Z,1000.77
2016-11-11T00:08:33.084Z,1000.74
2016-11-11T00:09:33.069Z,1000.78
2016-11-11T00:10:33.052Z,1000.81
2016-11-11T00:11:33.035Z,1000.76
2016-11-11T00:12:33.020Z,1000.79
2016-11-11T00:13:33.002Z,1000.8
2016-11-11T00:14:32.989Z,1000.77
2016-11-11T00:15:32.970Z,1000.83
2016-11-11T00:16:32.954Z,1000.81
2016-11-11T00:17:32.935Z,1000.88
2016-11-11T00:18:32.923Z,1000.82
2016-11-11T00:19:32.908Z,1000.81
2016-11-11T00:20:32.890Z,1000.83
2016-11-11T00:21:32.873Z,1000.88
2016-11-11T00:22:32.861Z,1000.88
2016-11-11T00:23:32.843Z,1000.86
2016-11-11T00:24:32.824Z,1000.94
2016-11-11T00:25:32.817Z,1000.91
2016-11-11T00:26:32.793Z,1000.95
2016-11-11T00:27:32.777Z,1000.93
2016-11-11T00:28:32.763Z,1001.02
2016-11-11T00:29:32.745Z,1001
2016-11-11T00:30:32.727Z,1000.99
2016-11-11T00:31:32.714Z,1001.01
2016-11-11T00:32:32.694Z,1001.01
2016-11-11T00:33:32.680Z,1000.96
2016-11-11T00:34:32.666Z,1001.01
2016-11-11T00:35:32.649Z,1001.02
2016-11-11T00:36:32.633Z,1001.08
2016-11-11T00:37:32.612Z,1001.08
2016-11-11T00:38:32.597Z,1001.06
2016-11-11T00:39:32.582Z,1001.08
2016-11-11T00:40:32.566Z,1001.12
2016-11-11T00:41:32.549Z,1001.12
2016-11-11T00:42:32.532Z,1001.13
2016-11-11T00:43:32.514Z,1001.11
2016-11-11T00:44:32.499Z,1001.16
2016-11-11T00:45:32.484Z,1001.13
2016-11-11T00:46:32.470Z,1001.16
2016-11-11T00:47:32.450Z,1001.18
2016-11-11T00:48:32.433Z,1001.21
2016-11-11T00:49:32.419Z,1001.24
2016-11-11T00:50:32.404Z,1001.2
2016-11-11T00:51:32.384Z,1001.21
2016-11-11T00:52:32.367Z,1001.25
2016-11-11T00:53:32.353Z,1001.25
2016-11-11T00:54:32.336Z,1001.28
2016-11-11T00:55:32.318Z,1001.3
2016-11-11T00:56:32.305Z,1001.3
2016-11-11T00:57:32.288Z,1001.3
2016-11-11T00:58:32.274Z,1001.33
2016-11-11T00:59:32.253Z,1001.27
2016-11-11T01:00:32.238Z,1001.31
2016-11-11T01:01:32.224Z,1001.33
2016-11-11T01:02:32.203Z,1001.29
2016-11-11T01:03:32.188Z,1001.33
2016-11-11T01:04:32.171Z,1001.37
2016-11-11T01:05:32.156Z,1001.38
2016-11-11T01:06:32.140Z,1001.38
2016-11-11T01:07:32.123Z,1001.42
2016-11-11T01:08:32.106Z,1001.4
2016-11-11T01:09:32.095Z,1001.44
2016-11-11T01:10:32.074Z,1001.46
2016-11-11T01:11:32.056Z,1001.46
2016-11-11T01:12:32.042Z,1001.48
2016-11-11T01:13:32.024Z,1001.5
2016-11-11T01:14:32.007Z,1001.5
2016-11-11T01:15:31.991Z,1001.54
2016-11-11T01:16:31.974Z,1001.52
2016-11-11T01:17:31.957Z,1001.51
2016-11-11T01:18:31.946Z,1001.51
2016-11-11T01:19:31.926Z,1001.52
2016-11-11T01:20:31.912Z,1001.56
2016-11-11T01:21:31.902Z,1001.57
2016-11-11T01:22:31.880Z,1001.57
2016-11-11T01:23:31.859Z,1001.56
2016-11-11T01:24:31.842Z,1001.63
2016-11-11T01:25:31.827Z,1001.61
2016-11-11T01:26:31.814Z,1001.67
2016-11-11T01:27:31.794Z,1001.66
2016-11-11T01:28:31.777Z,1001.66
2016-11-11T01:29:31.761Z,1001.68
2016-11-11T01:30:31.745Z,1001.71
2016-11-11T01:31:31.728Z,1001.74
2016-11-11T01:32:31.711Z,1001.7
2016-11-11T01:33:31.695Z,1001.74
2016-11-11T01:34:31.678Z,1001.73
2016-11-11T01:35:31.661Z,1001.76
2016-11-11T01:36:31.646Z,1001.72
2016-11-11T01:37:31.628Z,1001.74
2016-11-11T01:38:31.617Z,1001.76
2016-11-11T01:39:31.598Z,1001.81
2016-11-11T01:40:31.579Z,1001.79
2016-11-11T01:41:31.563Z,1001.82
2016-11-11T01:42:31.546Z,1001.87
2016-11-11T01:43:31.529Z,1001.84
2016-11-11T01:44:31.514Z,1001.84
2016-11-11T01:45:31.501Z,1001.86
2016-11-11T01:46:31.479Z,1001.88
2016-11-11T01:47:31.466Z,1001.88
2016-11-11T01:48:31.447Z,1001.9
2016-11-11T01:49:31.432Z,1001.94
2016-11-11T01:50:31.414Z,1001.96
2016-11-11T01:51:31.397Z,1001.92
2016-11-11T01:52:31.382Z,1001.95
2016-11-11T01:53:31.375Z,1001.94
2016-11-11T01:54:31.350Z,1001.94
2016-11-11T01:55:31.333Z,1001.99
2016-11-11T01:56:31.317Z,1001.94
2016-11-11T01:57:31.298Z,1002.02
2016-11-11T01:58:31.286Z,1002.06
2016-11-11T01:59:31.266Z,1002.08
2016-11-11T02:00:31.250Z,1002.07
2016-11-11T02:01:31.233Z,1002.04
2016-11-11T02:02:31.216Z,1002.1
2016-11-11T02:03:31.199Z,1002.12
2016-11-11T02:04:31.183Z,1002.17
2016-11-11T02:05:31.166Z,1002.16
2016-11-11T02:06:31.151Z,1002.16
2016-11-11T02:07:31.134Z,1002.15
2016-11-11T02:08:31.116Z,1002.15
2016-11-11T02:09:31.101Z,1002.17
2016-11-11T02:10:31.084Z,1002.18
2016-11-11T02:11:31.067Z,1002.21
2016-11-11T02:12:31.049Z,1002.22
2016-11-11T02:13:31.038Z,1002.22
2016-11-11T02:14:31.017Z,1002.25
2016-11-11T02:15:31.000Z,1002.24
2016-11-11T02:16:30.985Z,1002.27
2016-11-11T02:17:30.967Z,1002.22
2016-11-11T02:18:30.952Z,1002.26
2016-11-11T02:19:30.935Z,1002.31
2016-11-11T02:20:30.918Z,1002.25
2016-11-11T02:21:30.901Z,1002.31
2016-11-11T02:22:30.886Z,1002.3
2016-11-11T02:23:30.869Z,1002.33
2016-11-11T02:24:30.853Z,1002.31
2016-11-11T02:25:30.836Z,1002.34
2016-11-11T02:26:30.819Z,1002.39
2016-11-11T02:27:30.805Z,1002.38
2016-11-11T02:28:30.786Z,1002.36
2016-11-11T02:29:30.767Z,1002.42
2016-11-11T02:30:30.752Z,1002.36
2016-11-11T02:31:30.737Z,1002.35
2016-11-11T02:32:30.720Z,1002.43
2016-11-11T02:33:30.702Z,1002.44
2016-11-11T02:34:30.685Z,1002.43
2016-11-11T02:35:30.670Z,1002.43
2016-11-11T02:36:30.656Z,1002.44
2016-11-11T02:37:30.633Z,1002.51
2016-11-11T02:38:30.618Z,1002.45
2016-11-11T02:39:30.603Z,1002.44
2016-11-11T02:40:30.588Z,1002.49
2016-11-11T02:41:30.571Z,1002.53
2016-11-11T02:42:30.553Z,1002.49
2016-11-11T02:43:30.536Z,1002.5
2016-11-11T02:44:30.519Z,1002.52
2016-11-11T02:45:30.502Z,1002.55
2016-11-11T02:46:30.487Z,1002.55
2016-11-11T02:47:30.520Z,1002.62
2016-11-11T02:48:30.452Z,1002.59
2016-11-11T02:49:30.437Z,1002.64
2016-11-11T02:50:30.420Z,1002.69
2016-11-11T02:51:30.403Z,1002.68
2016-11-11T02:52:30.388Z,1002.73
2016-11-11T02:53:30.370Z,1002.75
2016-11-11T02:54:30.353Z,1002.75
2016-11-11T02:55:30.336Z,1002.78
2016-11-11T02:56:30.318Z,1002.78
2016-11-11T02:57:30.303Z,1002.79
2016-11-11T02:58:30.286Z,1002.78
2016-11-11T02:59:30.269Z,1002.81
2016-11-11T03:00:30.252Z,1002.86
2016-11-11T03:01:30.241Z,1002.89
2016-11-11T03:02:30.219Z,1002.87
2016-11-11T03:03:30.200Z,1002.9
2016-11-11T03:04:30.187Z,1002.89
2016-11-11T03:05:30.170Z,1002.92
2016-11-11T03:06:30.153Z,1003
2016-11-11T03:07:30.134Z,1003
2016-11-11T03:08:30.120Z,1002.95
2016-11-11T03:09:30.103Z,1002.98
2016-11-11T03:10:30.088Z,1002.99
2016-11-11T03:11:30.067Z,1003.05
2016-11-11T03:12:30.053Z,1003.11
2016-11-11T03:13:30.036Z,1003.14
2016-11-11T03:14:30.019Z,1003.14
2016-11-11T03:15:30.003Z,1003.15
2016-11-11T03:16:29.986Z,1003.18
2016-11-11T03:17:29.969Z,1003.2
2016-11-11T03:18:29.952Z,1003.2
2016-11-11T03:19:29.933Z,1003.2
2016-11-11T03:20:29.918Z,1003.22
2016-11-11T03:21:29.902Z,1003.2
2016-11-11T03:22:29.909Z,1003.18
2016-11-11T03:23:29.870Z,1003.23
2016-11-11T03:24:29.857Z,1003.28
2016-11-11T03:25:29.835Z,1003.27
2016-11-11T03:26:29.822Z,1003.26
2016-11-11T03:27:29.801Z,1003.31
2016-11-11T03:28:29.788Z,1003.29
2016-11-11T03:29:29.768Z,1003.3
2016-11-11T03:30:29.751Z,1003.31
2016-11-11T03:31:29.736Z,1003.31
2016-11-11T03:32:29.719Z,1003.37
2016-11-11T03:33:29.702Z,1003.35
2016-11-11T03:34:29.684Z,1003.37
2016-11-11T03:35:29.674Z,1003.39
2016-11-11T03:36:29.651Z,1003.39
2016-11-11T03:37:29.634Z,1003.43
2016-11-11T03:38:29.617Z,1003.5
2016-11-11T03:39:29.600Z,1003.43
2016-11-11T03:40:29.583Z,1003.45
2016-11-11T03:41:29.567Z,1003.48
2016-11-11T03:42:29.550Z,1003.51
2016-11-11T03:43:29.536Z,1003.5
2016-11-11T03:44:29.519Z,1003.51
2016-11-11T03:45:29.500Z,1003.51
2016-11-11T03:46:29.483Z,1003.55
2016-11-11T03:47:29.467Z,1003.55
2016-11-11T03:48:29.448Z,1003.57
2016-11-11T03:49:29.433Z,1003.56
2016-11-11T03:50:29.418Z,1003.57
2016-11-11T03:51:29.399Z,1003.56
2016-11-11T03:52:29.382Z,1003.61
2016-11-11T03:53:29.367Z,1003.64
2016-11-11T03:54:29.347Z,1003.68
2016-11-11T03:55:29.332Z,1003.65
2016-11-11T03:56:29.316Z,1003.68
2016-11-11T03:57:29.297Z,1003.72
2016-11-11T03:58:29.284Z,1003.77
2016-11-11T03:59:29.265Z,1003.77
2016-11-11T04:00:29.250Z,1003.78
2016-11-11T04:01:29.230Z,1003.81
2016-11-11T04:02:29.215Z,1003.86
2016-11-11T04:03:29.197Z,1003.85
2016-11-11T04:04:29.180Z,1003.89
2016-11-11T04:05:29.163Z,1003.91
2016-11-11T04:06:29.146Z,1003.91
2016-11-11T04:07:29.129Z,1003.99
2016-11-11T04:08:29.114Z,1003.97
2016-11-11T04:09:29.100Z,1004.03
2016-11-11T04:10:29.079Z,1004.03
2016-11-11T04:11:29.062Z,1004.12
2016-11-11T04:12:29.049Z,1004.17
2016-11-11T04:13:29.030Z,1004.13
2016-11-11T04:14:29.012Z,1004.13
2016-11-11T04:15:28.995Z,1004.18
2016-11-11T04:16:28.978Z,1004.21
2016-11-11T04:17:28.958Z,1004.25
2016-11-11T04:18:28.945Z,1004.2
2016-11-11T04:19:28.928Z,1004.26
2016-11-11T04:20:28.911Z,1004.23
2016-11-11T04:21:28.894Z,1004.27
2016-11-11T04:22:28.878Z,1004.31
2016-11-11T04:23:28.860Z,1004.35
2016-11-11T04:24:28.842Z,1004.35
2016-11-11T04:25:28.825Z,1004.36
2016-11-11T04:26:28.810Z,1004.39
2016-11-11T04:27:28.793Z,1004.38
2016-11-11T04:28:28.776Z,1004.4
2016-11-11T04:29:28.760Z,1004.4
2016-11-11T04:30:28.741Z,1004.49
2016-11-11T04:31:28.726Z,1004.49
2016-11-11T04:32:28.711Z,1004.54
2016-11-11T04:33:28.690Z,1004.51
2016-11-11T04:34:28.674Z,1004.57
2016-11-11T04:35:28.657Z,1004.6
2016-11-11T04:36:28.642Z,1004.63
2016-11-11T04:37:28.625Z,1004.63
2016-11-11T04:38:28.607Z,1004.67
2016-11-11T04:39:28.590Z,1004.65
2016-11-11T04:40:28.573Z,1004.76
2016-11-11T04:41:28.558Z,1004.78
2016-11-11T04:42:28.542Z,1004.76
2016-11-11T04:43:28.523Z,1004.79
2016-11-11T04:44:28.507Z,1004.81
2016-11-11T04:45:28.489Z,1004.85
2016-11-11T04:46:28.476Z,1004.86
2016-11-11T04:47:28.457Z,1004.88
2016-11-11T04:48:28.441Z,1004.87
2016-11-11T04:49:28.422Z,1004.97
2016-11-11T04:50:28.405Z,1004.93
2016-11-11T04:51:28.389Z,1004.94
2016-11-11T04:52:28.373Z,1004.96
2016-11-11T04:53:28.355Z,1005
2016-11-11T04:54:28.338Z,1005
2016-11-11T04:55:28.323Z,1005.03
2016-11-11T04:56:28.304Z,1005.01
2016-11-11T04:57:28.288Z,1005.07
2016-11-11T04:58:28.270Z,1005.06
2016-11-11T04:59:28.254Z,1005.09
2016-11-11T05:00:28.237Z,1005.16
2016-11-11T05:01:28.220Z,1005.05
2016-11-11T05:02:28.199Z,1005.11
2016-11-11T05:03:28.192Z,1005.15
2016-11-11T05:04:28.170Z,1005.15
2016-11-11T05:05:28.153Z,1005.17
2016-11-11T05:06:28.136Z,1005.22
2016-11-11T05:07:28.119Z,1005.2
2016-11-11T05:08:28.106Z,1005.26
2016-11-11T05:09:28.087Z,1005.35
2016-11-11T05:10:28.069Z,1005.34
2016-11-11T05:11:28.054Z,1005.34
2016-11-11T05:12:28.035Z,1005.37
2016-11-11T05:13:28.017Z,1005.4
2016-11-11T05:14:28.000Z,1005.42
2016-11-11T05:15:27.983Z,1005.45
2016-11-11T05:16:27.968Z,1005.54
2016-11-11T05:17:27.951Z,1005.5
2016-11-11T05:18:27.934Z,1005.57
2016-11-11T05:19:27.916Z,1005.59
2016-11-11T05:20:27.901Z,1005.6
2016-11-11T05:21:27.884Z,1005.64
2016-11-11T05:22:27.873Z,1005.7
2016-11-11T05:23:27.851Z,1005.71
2016-11-11T05:24:27.834Z,1005.68
2016-11-11T05:25:27.818Z,1005.72
2016-11-11T05:26:27.802Z,1005.77
2016-11-11T05:27:27.783Z,1005.83
2016-11-11T05:28:27.768Z,1005.85
2016-11-11T05:29:27.748Z,1005.9
2016-11-11T05:30:27.734Z,1005.92
2016-11-11T05:31:27.717Z,1005.91
2016-11-11T05:32:27.701Z,1005.92
2016-11-11T05:33:27.684Z,1005.95
2016-11-11T05:34:27.671Z,1005.94
2016-11-11T05:35:27.650Z,1005.94
2016-11-11T05:36:27.633Z,1006.04
2016-11-11T05:37:27.616Z,1006.03
2016-11-11T05:38:27.601Z,1006.09
2016-11-11T05:39:27.585Z,1006.09
2016-11-11T05:40:27.568Z,1006.08
2016-11-11T05:41:27.551Z,1006.1
2016-11-11T05:42:27.535Z,1006.1
2016-11-11T05:43:27.523Z,1006.13
2016-11-11T05:44:27.503Z,1006.17
2016-11-11T05:45:27.488Z,1006.23
2016-11-11T05:46:27.469Z,1006.26
2016-11-11T05:47:27.451Z,1006.31
2016-11-11T05:48:27.436Z,1006.34
2016-11-11T05:49:27.419Z,1006.3
2016-11-11T05:50:27.404Z,1006.34
2016-11-11T05:51:27.389Z,1006.39
2016-11-11T05:52:27.369Z,1006.38
2016-11-11T05:53:27.354Z,1006.47
2016-11-11T05:54:27.340Z,1006.49
2016-11-11T05:55:27.320Z,1006.54
2016-11-11T05:56:27.305Z,1006.53
2016-11-11T05:57:27.288Z,1006.57
2016-11-11T05:58:27.270Z,1006.56
2016-11-11T05:59:27.254Z,1006.59
2016-11-11T06:00:27.238Z,1006.54
2016-11-11T06:01:27.223Z,1006.54
2016-11-11T06:02:27.206Z,1006.56
2016-11-11T06:03:27.192Z,1006.58
2016-11-11T06:04:27.173Z,1006.58
2016-11-11T06:05:27.159Z,1006.6
2016-11-11T06:06:27.141Z,1006.62
2016-11-11T06:07:27.124Z,1006.67
2016-11-11T06:08:27.108Z,1006.72
2016-11-11T06:09:27.091Z,1006.73
2016-11-11T06:10:27.075Z,1006.71
2016-11-11T06:11:27.061Z,1006.8
2016-11-11T06:12:27.044Z,1006.81
2016-11-11T06:13:27.026Z,1006.85
2016-11-11T06:14:27.014Z,1006.91
2016-11-11T06:15:26.994Z,1006.88
2016-11-11T06:16:26.977Z,1006.9
2016-11-11T06:17:26.960Z,1006.96
2016-11-11T06:18:26.945Z,1006.95
2016-11-11T06:19:26.927Z,1007
2016-11-11T06:20:26.915Z,1007.01
2016-11-11T06:21:26.895Z,1007.04
2016-11-11T06:22:26.885Z,1007.09
2016-11-11T06:23:26.864Z,1007.06
2016-11-11T06:24:26.846Z,1007.11
2016-11-11T06:25:26.830Z,1007.13
2016-11-11T06:26:26.815Z,1007.13
2016-11-11T06:27:26.799Z,1007.15
2016-11-11T06:28:26.781Z,1007.21
2016-11-11T06:29:26.765Z,1007.29
2016-11-11T06:30:26.750Z,1007.33
2016-11-11T06:31:26.732Z,1007.34
2016-11-11T06:32:26.717Z,1007.35
2016-11-11T06:33:26.701Z,1007.33
2016-11-11T06:34:26.685Z,1007.38
2016-11-11T06:35:26.668Z,1007.42
2016-11-11T06:36:26.653Z,1007.47
2016-11-11T06:37:26.638Z,1007.55
2016-11-11T06:38:26.624Z,1007.58
2016-11-11T06:39:26.605Z,1007.62
2016-11-11T06:40:26.588Z,1007.67
2016-11-11T06:41:26.573Z,1007.65
2016-11-11T06:42:26.562Z,1007.72
2016-11-11T06:43:26.541Z,1007.72
2016-11-11T06:44:26.525Z,1007.71
2016-11-11T06:45:26.510Z,1007.75
2016-11-11T06:46:26.491Z,1007.79
2016-11-11T06:47:26.478Z,1007.84
2016-11-11T06:48:26.461Z,1007.88
2016-11-11T06:49:26.444Z,1007.88
2016-11-11T06:50:26.426Z,1007.96
2016-11-11T06:51:26.411Z,1007.91
2016-11-11T06:52:26.396Z,1007.96
2016-11-11T06:53:26.381Z,1007.98
2016-11-11T06:54:26.365Z,1008.04
2016-11-11T06:55:26.346Z,1008.05
2016-11-11T06:56:26.331Z,1008.06
2016-11-11T06:57:26.314Z,1008.05
2016-11-11T06:58:26.297Z,1008.12
2016-11-11T06:59:26.280Z,1008.14
2016-11-11T07:00:26.264Z,1008.19
2016-11-11T07:01:26.249Z,1008.18
2016-11-11T07:02:26.232Z,1008.22
2016-11-11T07:03:26.217Z,1008.21
2016-11-11T07:04:26.200Z,1008.25
2016-11-11T07:05:26.184Z,1008.27
2016-11-11T07:06:26.167Z,1008.31
2016-11-11T07:07:26.152Z,1008.35
2016-11-11T07:08:26.135Z,1008.41
2016-11-11T07:09:26.119Z,1008.43
2016-11-11T07:10:26.103Z,1008.46
2016-11-11T07:11:26.087Z,1008.5
2016-11-11T07:12:26.070Z,1008.51
2016-11-11T07:13:26.054Z,1008.57
2016-11-11T07:14:26.036Z,1008.6
2016-11-11T07:15:26.023Z,1008.58
2016-11-11T07:16:26.005Z,1008.67
2016-11-11T07:17:25.990Z,1008.68
2016-11-11T07:18:25.973Z,1008.65
2016-11-11T07:19:25.962Z,1008.73
2016-11-11T07:20:25.941Z,1008.74
2016-11-11T07:21:25.925Z,1008.81
2016-11-11T07:22:25.908Z,1008.79
2016-11-11T07:23:25.893Z,1008.8
2016-11-11T07:24:25.880Z,1008.85
2016-11-11T07:25:25.861Z,1008.84
2016-11-11T07:26:25.843Z,1008.83
2016-11-11T07:27:25.830Z,1008.89
2016-11-11T07:28:25.811Z,1008.92
2016-11-11T07:29:25.796Z,1008.97
2016-11-11T07:30:25.779Z,1008.98
2016-11-11T07:31:25.762Z,1008.96
2016-11-11T07:32:25.747Z,1009.01
2016-11-11T07:33:25.731Z,1009.03
2016-11-11T07:34:25.712Z,1009.01
2016-11-11T07:35:25.697Z,1009.07
2016-11-11T07:36:25.680Z,1009.13
2016-11-11T07:37:25.663Z,1009.18
2016-11-11T07:38:25.647Z,1009.19
2016-11-11T07:39:25.634Z,1009.2
2016-11-11T07:40:25.612Z,1009.22
2016-11-11T07:41:25.598Z,1009.26
2016-11-11T07:42:25.580Z,1009.26
2016-11-11T07:43:25.566Z,1009.28
2016-11-11T07:44:25.552Z,1009.3
2016-11-11T07:45:25.531Z,1009.37
2016-11-11T07:46:25.516Z,1009.34
2016-11-11T07:47:25.503Z,1009.37
2016-11-11T07:48:25.483Z,1009.37
2016-11-11T07:49:25.466Z,1009.41
2016-11-11T07:50:25.450Z,1009.46
2016-11-11T07:51:25.433Z,1009.47
2016-11-11T07:52:25.420Z,1009.5
2016-11-11T07:53:25.402Z,1009.5
2016-11-11T07:54:25.384Z,1009.51
2016-11-11T07:55:25.371Z,1009.5
2016-11-11T07:56:25.354Z,1009.54
2016-11-11T07:57:25.338Z,1009.61
2016-11-11T07:58:25.320Z,1009.57
2016-11-11T07:59:25.302Z,1009.58
2016-11-11T08:00:25.291Z,1009.62
2016-11-11T08:01:25.272Z,1009.66
2016-11-11T08:02:25.255Z,1009.69
2016-11-11T08:03:25.239Z,1009.7
2016-11-11T08:04:25.225Z,1009.71
2016-11-11T08:05:25.205Z,1009.78
2016-11-11T08:06:25.192Z,1009.76
2016-11-11T08:07:25.174Z,1009.79
2016-11-11T08:08:25.157Z,1009.8
2016-11-11T08:09:25.142Z,1009.86
2016-11-11T08:10:25.127Z,1009.84
2016-11-11T08:11:25.111Z,1009.88
2016-11-11T08:12:25.097Z,1009.87
2016-11-11T08:13:25.077Z,1009.93
2016-11-11T08:14:25.122Z,1009.94
2016-11-11T08:15:25.049Z,1009.89
2016-11-11T08:16:25.031Z,1009.94
2016-11-11T08:17:25.014Z,1009.95
2016-11-11T08:18:24.997Z,1009.95
2016-11-11T08:19:24.983Z,1009.99
2016-11-11T08:20:24.969Z,1010.04
2016-11-11T08:21:24.949Z,1010.05
2016-11-11T08:22:24.935Z,1010.03
2016-11-11T08:23:24.921Z,1010.08
2016-11-11T08:24:24.902Z,1010.14
2016-11-11T08:25:24.893Z,1010.14
2016-11-11T08:26:24.869Z,1010.21
2016-11-11T08:27:24.854Z,1010.23
2016-11-11T08:28:24.843Z,1010.28
2016-11-11T08:29:24.822Z,1010.3
2016-11-11T08:30:24.805Z,1010.33
2016-11-11T08:31:24.791Z,1010.4
2016-11-11T08:32:24.776Z,1010.43
2016-11-11T08:33:24.755Z,1010.49
2016-11-11T08:34:24.744Z,1010.48
2016-11-11T08:35:24.728Z,1010.46
2016-11-11T08:36:24.711Z,1010.54
2016-11-11T08:37:24.694Z,1010.56
2016-11-11T08:38:24.680Z,1010.59
2016-11-11T08:39:24.659Z,1010.63
2016-11-11T08:40:24.644Z,1010.66
2016-11-11T08:41:24.630Z,1010.67
2016-11-11T08:42:24.613Z,1010.76
2016-11-11T08:43:24.603Z,1010.78
2016-11-11T08:44:24.581Z,1010.79
2016-11-11T08:45:24.566Z,1010.79
2016-11-11T08:46:24.551Z,1010.82
2016-11-11T08:47:24.534Z,1010.8
2016-11-11T08:48:24.518Z,1010.86
2016-11-11T08:49:24.502Z,1010.83
2016-11-11T08:50:24.485Z,1010.86
2016-11-11T08:51:24.469Z,1010.86
2016-11-11T08:52:24.452Z,1010.93
2016-11-11T08:53:24.439Z,1010.89
2016-11-11T08:54:24.421Z,1010.94
2016-11-11T08:55:24.406Z,1010.96
2016-11-11T08:56:24.394Z,1010.97
2016-11-11T08:57:24.374Z,1011.04
2016-11-11T08:58:24.358Z,1011.05
2016-11-11T08:59:24.343Z,1011.15
2016-11-11T09:00:24.330Z,1011.14
2016-11-11T09:01:24.310Z,1011.2
2016-11-11T09:02:24.295Z,1011.17
2016-11-11T09:03:24.278Z,1011.19
2016-11-11T09:04:24.265Z,1011.2
2016-11-11T09:05:24.248Z,1011.23
2016-11-11T09:06:24.232Z,1011.18
2016-11-11T09:07:24.215Z,1011.24
2016-11-11T09:08:24.198Z,1011.32
2016-11-11T09:09:24.181Z,1011.35
2016-11-11T09:10:24.167Z,1011.39
2016-11-11T09:11:24.156Z,1011.41
2016-11-11T09:12:24.135Z,1011.44
2016-11-11T09:13:24.118Z,1011.48
2016-11-11T09:14:24.107Z,1011.47
2016-11-11T09:15:24.088Z,1011.49
2016-11-11T09:16:24.072Z,1011.54
2016-11-11T09:17:24.057Z,1011.49
2016-11-11T09:18:24.039Z,1011.58
2016-11-11T09:19:24.024Z,1011.57
2016-11-11T09:20:24.009Z,1011.61
2016-11-11T09:21:23.992Z,1011.62
2016-11-11T09:22:23.977Z,1011.63
2016-11-11T09:23:23.962Z,1011.65
2016-11-11T09:24:23.945Z,1011.68
2016-11-11T09:25:23.932Z,1011.7
2016-11-11T09:26:23.914Z,1011.72
2016-11-11T09:27:23.897Z,1011.81
2016-11-11T09:28:23.882Z,1011.82
2016-11-11T09:29:23.866Z,1011.86
2016-11-11T09:30:23.849Z,1011.85
2016-11-11T09:31:23.836Z,1011.94
2016-11-11T09:32:23.818Z,1011.96
2016-11-11T09:33:23.803Z,1011.97
2016-11-11T09:34:23.786Z,1011.98
2016-11-11T09:35:23.767Z,1011.96
2016-11-11T09:36:23.755Z,1011.94
2016-11-11T09:37:23.740Z,1011.99
2016-11-11T09:38:23.725Z,1012
2016-11-11T09:39:23.708Z,1011.96
2016-11-11T09:40:23.700Z,1012.04
2016-11-11T09:41:23.676Z,1012.01
2016-11-11T09:42:23.660Z,1012.07
2016-11-11T09:43:23.645Z,1012.08
2016-11-11T09:44:23.628Z,1012.09
2016-11-11T09:45:23.612Z,1012.08
2016-11-11T09:46:23.597Z,1012.12
2016-11-11T09:47:23.579Z,1012.13
2016-11-11T09:48:23.564Z,1012.2
2016-11-11T09:49:23.548Z,1012.17
2016-11-11T09:50:23.537Z,1012.19
2016-11-11T09:51:23.517Z,1012.17
2016-11-11T09:52:23.502Z,1012.21
2016-11-11T09:53:23.486Z,1012.23
2016-11-11T09:54:23.471Z,1012.22
2016-11-11T09:55:23.458Z,1012.31
2016-11-11T09:56:23.442Z,1012.3
2016-11-11T09:57:23.423Z,1012.31
2016-11-11T09:58:23.408Z,1012.35
2016-11-11T09:59:23.391Z,1012.36
2016-11-11T10:00:23.375Z,1012.43
2016-11-11T10:01:23.364Z,1012.39
2016-11-11T10:02:23.346Z,1012.46
2016-11-11T10:03:23.330Z,1012.46
2016-11-11T10:04:23.311Z,1012.42
2016-11-11T10:05:23.295Z,1012.53
2016-11-11T10:06:23.279Z,1012.54
2016-11-11T10:07:23.263Z,1012.49
2016-11-11T10:08:23.249Z,1012.5
2016-11-11T10:09:23.232Z,1012.5
2016-11-11T10:10:23.216Z,1012.58
2016-11-11T10:11:23.200Z,1012.59
2016-11-11T10:12:23.184Z,1012.58
2016-11-11T10:13:23.170Z,1012.65
2016-11-11T10:14:23.152Z,1012.65
2016-11-11T10:15:23.138Z,1012.74
2016-11-11T10:16:23.124Z,1012.71
2016-11-11T10:17:23.106Z,1012.72
2016-11-11T10:18:23.089Z,1012.73
2016-11-11T10:19:23.074Z,1012.74
2016-11-11T10:20:23.059Z,1012.83
2016-11-11T10:21:23.042Z,1012.85
2016-11-11T10:22:23.026Z,1012.92
2016-11-11T10:23:23.011Z,1012.89
2016-11-11T10:24:22.996Z,1012.92
2016-11-11T10:25:22.979Z,1012.93
2016-11-11T10:26:22.963Z,1012.93
2016-11-11T10:27:22.946Z,1012.96
2016-11-11T10:28:22.931Z,1012.95
2016-11-11T10:29:22.916Z,1012.91
2016-11-11T10:30:22.899Z,1012.93
2016-11-11T10:31:22.883Z,1012.93
2016-11-11T10:32:22.868Z,1012.9
2016-11-11T10:33:22.851Z,1012.94
2016-11-11T10:34:22.835Z,1012.94
2016-11-11T10:35:22.821Z,1012.93
2016-11-11T10:36:22.802Z,1012.92
2016-11-11T10:37:22.798Z,1012.91
2016-11-11T10:38:22.772Z,1012.92
2016-11-11T10:39:22.758Z,1012.92
2016-11-11T10:40:22.740Z,1012.96
2016-11-11T10:41:22.727Z,1013.03
2016-11-11T10:42:22.711Z,1013.06
2016-11-11T10:43:22.693Z,1013.05
2016-11-11T10:44:22.677Z,1013.06
2016-11-11T10:45:22.666Z,1013.09
2016-11-11T10:46:22.647Z,1013.06
2016-11-11T10:47:22.630Z,1013.08
2016-11-11T10:48:22.621Z,1013.08
2016-11-11T10:49:22.599Z,1013.11
2016-11-11T10:50:22.582Z,1013.12
2016-11-11T10:51:22.563Z,1013.08
2016-11-11T10:52:22.560Z,1013.13
2016-11-11T10:53:22.537Z,1013.13
2016-11-11T10:54:22.521Z,1013.06
2016-11-11T10:55:22.504Z,1013.13
2016-11-11T10:56:22.488Z,1013.21
2016-11-11T10:57:22.473Z,1013.15
2016-11-11T10:58:22.456Z,1013.17
2016-11-11T10:59:22.445Z,1013.23
2016-11-11T11:00:22.426Z,1013.17
2016-11-11T11:01:22.408Z,1013.24
2016-11-11T11:02:22.393Z,1013.15
2016-11-11T11:03:22.381Z,1013.2
2016-11-11T11:04:22.363Z,1013.22
2016-11-11T11:05:22.346Z,1013.24
2016-11-11T11:06:22.330Z,1013.27
2016-11-11T11:07:22.315Z,1013.28
2016-11-11T11:08:22.298Z,1013.25
2016-11-11T11:09:22.283Z,1013.29
2016-11-11T11:10:22.268Z,1013.25
2016-11-11T11:11:22.253Z,1013.32
2016-11-11T11:12:22.235Z,1013.31
2016-11-11T11:13:22.220Z,1013.27
2016-11-11T11:14:22.203Z,1013.34
2016-11-11T11:15:22.191Z,1013.41
2016-11-11T11:16:22.174Z,1013.42
2016-11-11T11:17:22.159Z,1013.39
2016-11-11T11:18:22.143Z,1013.35
2016-11-11T11:19:22.124Z,1013.36
2016-11-11T11:20:22.110Z,1013.37
2016-11-11T11:21:22.094Z,1013.32
2016-11-11T11:22:22.079Z,1013.33
2016-11-11T11:23:22.062Z,1013.32
2016-11-11T11:24:22.048Z,1013.36
2016-11-11T11:25:22.033Z,1013.34
2016-11-11T11:26:22.016Z,1013.43
2016-11-11T11:27:21.999Z,1013.41
2016-11-11T11:28:21.982Z,1013.42
2016-11-11T11:29:21.969Z,1013.44
2016-11-11T11:30:21.957Z,1013.48
2016-11-11T11:31:21.940Z,1013.46
2016-11-11T11:32:21.921Z,1013.48
2016-11-11T11:33:21.907Z,1013.47
2016-11-11T11:34:21.894Z,1013.46
2016-11-11T11:35:21.878Z,1013.56
2016-11-11T11:36:21.857Z,1013.52
2016-11-11T11:37:21.843Z,1013.51
2016-11-11T11:38:21.831Z,1013.54
2016-11-11T11:39:21.813Z,1013.55
2016-11-11T11:40:21.797Z,1013.61
2016-11-11T11:41:21.780Z,1013.58
2016-11-11T11:42:21.765Z,1013.65
2016-11-11T11:43:21.748Z,1013.7
2016-11-11T11:44:21.738Z,1013.68
2016-11-11T11:45:21.723Z,1013.67
2016-11-11T11:46:21.702Z,1013.68
2016-11-11T11:47:21.687Z,1013.72
2016-11-11T11:48:21.668Z,1013.73
2016-11-11T11:49:21.657Z,1013.72
2016-11-11T11:50:21.639Z,1013.74
2016-11-11T11:51:21.624Z,1013.74
2016-11-11T11:52:21.610Z,1013.8
2016-11-11T11:53:21.592Z,1013.8
2016-11-11T11:54:21.577Z,1013.78
2016-11-11T11:55:21.561Z,1013.87
2016-11-11T11:56:21.545Z,1013.8
2016-11-11T11:57:21.530Z,1013.85
2016-11-11T11:58:21.514Z,1013.86
2016-11-11T11:59:21.499Z,1013.91
2016-11-11T12:00:21.483Z,1013.89
2016-11-11T12:01:21.467Z,1013.92
2016-11-11T12:02:21.448Z,1013.94
2016-11-11T12:03:21.441Z,1013.98
2016-11-11T12:04:21.423Z,1013.99
2016-11-11T12:05:21.407Z,1014
2016-11-11T12:06:21.390Z,1014
2016-11-11T12:07:21.373Z,1014.01
2016-11-11T12:08:21.362Z,1014.03